createdAt,value
2016-04-15T00:00:16.113Z,999.87
2016-04-15T00:01:16.085Z,999.84
2016-04-15T00:02:16.056Z,999.85
2016-04-15T00:03:16.043Z,999.84
2016-04-15T00:04:16.015Z,999.8
2016-04-15T00:05:16.001Z,999.79
2016-04-15T00:06:15.973Z,999.76
2016-04-15T00:07:15.945Z,999.73
2016-04-15T00:08:15.915Z,999.73
2016-04-15T00:09:15.903Z,999.76
2016-04-15T00:10:15.875Z,999.72
2016-04-15T00:11:15.846Z,999.7
2016-04-15T00:12:15.834Z,999.69
2016-04-15T00:13:15.804Z,999.69
2016-04-15T00:14:15.792Z,999.68
2016-04-15T00:15:15.763Z,999.62
2016-04-15T00:16:15.734Z,999.61
2016-04-15T00:17:15.706Z,999.65
2016-04-15T00:18:15.692Z,999.58
2016-04-15T00:19:15.664Z,999.6
2016-04-15T00:20:15.635Z,999.61
2016-04-15T00:21:15.622Z,999.61
2016-04-15T00:22:15.594Z,999.57
2016-04-15T00:23:15.580Z,999.54
2016-04-15T00:24:15.552Z,999.54
2016-04-15T00:25:15.524Z,999.51
2016-04-15T00:26:15.496Z,999.5
2016-04-15T00:27:15.483Z,999.48
2016-04-15T00:28:15.454Z,999.48
2016-04-15T00:29:15.426Z,999.44
2016-04-15T00:30:15.412Z,999.41
2016-04-15T00:31:15.384Z,999.36
2016-04-15T00:32:15.355Z,999.38
2016-04-15T00:33:15.344Z,999.34
2016-04-15T00:34:15.315Z,999.28
2016-04-15T00:35:15.294Z,999.26
2016-04-15T00:36:15.265Z,999.25
2016-04-15T00:37:15.237Z,999.26
2016-04-15T00:38:15.223Z,999.32
2016-04-15T00:39:15.195Z,999.28
2016-04-15T00:40:15.166Z,999.26
2016-04-15T00:41:15.153Z,999.25
2016-04-15T00:42:15.125Z,999.22
2016-04-15T00:43:15.111Z,999.2
2016-04-15T00:44:15.083Z,999.2
2016-04-15T00:45:15.070Z,999.16
2016-04-15T00:46:15.026Z,999.18
2016-04-15T00:47:15.014Z,999.14
2016-04-15T00:48:14.985Z,999.1
2016-04-15T00:49:14.956Z,999.13
2016-04-15T00:50:14.928Z,999.09
2016-04-15T00:51:14.915Z,999.03
2016-04-15T00:52:14.886Z,999.03
2016-04-15T00:53:14.873Z,999.03
2016-04-15T00:54:14.844Z,999.02
2016-04-15T00:55:14.816Z,999.01
2016-04-15T00:56:14.787Z,999
2016-04-15T00:57:14.774Z,998.98
2016-04-15T00:58:14.746Z,998.97
2016-04-15T00:59:14.716Z,998.93
2016-04-15T01:00:14.704Z,998.87
2016-04-15T01:01:14.676Z,998.84
2016-04-15T01:02:14.647Z,998.82
2016-04-15T01:03:14.635Z,998.84
2016-04-15T01:04:14.605Z,998.82
2016-04-15T01:05:14.593Z,998.82
2016-04-15T01:06:14.564Z,998.79
2016-04-15T01:07:14.535Z,998.78
2016-04-15T01:08:14.507Z,998.75
2016-04-15T01:09:14.494Z,998.77
2016-04-15T01:10:14.465Z,998.74
2016-04-15T01:11:14.437Z,998.71
2016-04-15T01:12:14.408Z,998.73
2016-04-15T01:13:14.395Z,998.71
2016-04-15T01:14:14.367Z,998.71
2016-04-15T01:15:14.338Z,998.7
2016-04-15T01:16:14.326Z,998.7
2016-04-15T01:17:14.297Z,998.67
2016-04-15T01:18:14.268Z,998.67
2016-04-15T01:19:14.256Z,998.64
2016-04-15T01:20:14.227Z,998.61
2016-04-15T01:21:14.198Z,998.62
2016-04-15T01:22:14.185Z,998.62
2016-04-15T01:23:14.156Z,998.6
2016-04-15T01:24:14.128Z,998.62
2016-04-15T01:25:14.115Z,998.58
2016-04-15T01:26:14.087Z,998.58
2016-04-15T01:27:14.058Z,998.57
2016-04-15T01:28:14.045Z,998.57
2016-04-15T01:29:14.017Z,998.57
2016-04-15T01:30:13.988Z,998.53
2016-04-15T01:31:13.960Z,998.51
2016-04-15T01:32:13.946Z,998.52
2016-04-15T01:33:13.918Z,998.48
2016-04-15T01:34:13.890Z,998.48
2016-04-15T01:35:13.877Z,998.45
2016-04-15T01:36:13.848Z,998.44
2016-04-15T01:37:13.835Z,998.44
2016-04-15T01:38:13.806Z,998.4
2016-04-15T01:39:13.778Z,998.38
2016-04-15T01:40:13.749Z,998.37
2016-04-15T01:41:13.736Z,998.35
2016-04-15T01:42:13.708Z,998.26
2016-04-15T01:43:13.679Z,998.27
2016-04-15T01:44:13.651Z,998.26
2016-04-15T01:45:13.638Z,998.23
2016-04-15T01:46:13.609Z,998.21
2016-04-15T01:47:13.596Z,998.18
2016-04-15T01:48:13.567Z,998.16
2016-04-15T01:49:13.539Z,998.15
2016-04-15T01:50:13.511Z,998.12
2016-04-15T01:51:13.497Z,998.11
2016-04-15T01:52:13.469Z,998.1
2016-04-15T01:53:13.440Z,998.05
2016-04-15T01:54:13.443Z,998.07
2016-04-15T01:55:13.399Z,998.05
2016-04-15T01:56:13.369Z,998.06
2016-04-15T01:57:13.358Z,998.03
2016-04-15T01:58:13.329Z,998.01
2016-04-15T01:59:13.300Z,997.97
2016-04-15T02:00:13.272Z,997.99
2016-04-15T02:01:13.259Z,997.95
2016-04-15T02:02:13.246Z,997.92
2016-04-15T02:03:13.202Z,997.9
2016-04-15T02:04:13.188Z,997.93
2016-04-15T02:05:13.176Z,997.91
2016-04-15T02:06:13.147Z,997.9
2016-04-15T02:07:13.119Z,997.86
2016-04-15T02:08:13.091Z,997.86
2016-04-15T02:09:13.062Z,997.82
2016-04-15T02:10:13.049Z,997.83
2016-04-15T02:11:13.021Z,997.8
2016-04-15T02:12:12.992Z,997.8
2016-04-15T02:13:12.979Z,997.79
2016-04-15T02:14:12.965Z,997.8
2016-04-15T02:15:12.921Z,997.79
2016-04-15T02:16:12.893Z,997.76
2016-04-15T02:17:12.880Z,997.71
2016-04-15T02:18:12.851Z,997.72
2016-04-15T02:19:12.838Z,997.69
2016-04-15T02:20:12.809Z,997.74
2016-04-15T02:21:12.781Z,997.71
2016-04-15T02:22:12.799Z,997.73
2016-04-15T02:23:12.740Z,997.68
2016-04-15T02:24:12.711Z,997.79
2016-04-15T02:25:12.683Z,997.81
2016-04-15T02:26:12.670Z,997.82
2016-04-15T02:27:12.641Z,997.85
2016-04-15T02:28:12.613Z,997.77
2016-04-15T02:29:12.600Z,997.82
2016-04-15T02:30:12.586Z,997.82
2016-04-15T02:31:12.543Z,997.82
2016-04-15T02:32:12.530Z,997.78
2016-04-15T02:33:12.501Z,997.8
2016-04-15T02:34:12.472Z,997.83
2016-04-15T02:35:12.459Z,997.81
2016-04-15T02:36:12.431Z,997.79
2016-04-15T02:37:12.402Z,997.8
2016-04-15T02:38:12.390Z,997.79
2016-04-15T02:39:12.361Z,997.8
2016-04-15T02:40:12.332Z,997.8
2016-04-15T02:41:12.320Z,997.83
2016-04-15T02:42:12.291Z,997.83
2016-04-15T02:43:12.278Z,997.78
2016-04-15T02:44:12.234Z,997.78
2016-04-15T02:45:12.220Z,997.81
2016-04-15T02:46:12.192Z,997.78
2016-04-15T02:47:12.179Z,997.77
2016-04-15T02:48:12.151Z,997.79
2016-04-15T02:49:12.123Z,997.8
2016-04-15T02:50:12.095Z,997.79
2016-04-15T02:51:12.081Z,997.77
2016-04-15T02:52:12.053Z,997.74
2016-04-15T02:53:12.040Z,997.76
2016-04-15T02:54:12.011Z,997.74
2016-04-15T02:55:11.983Z,997.76
2016-04-15T02:56:11.953Z,997.72
2016-04-15T02:57:11.941Z,997.74
2016-04-15T02:58:11.912Z,997.7
2016-04-15T02:59:11.883Z,997.66
2016-04-15T03:00:11.871Z,997.7
2016-04-15T03:01:11.842Z,997.68
2016-04-15T03:02:11.830Z,997.74
2016-04-15T03:03:11.785Z,997.69
2016-04-15T03:04:11.772Z,997.72
2016-04-15T03:05:11.744Z,997.71
2016-04-15T03:06:11.730Z,997.66
2016-04-15T03:07:11.686Z,997.71
2016-04-15T03:08:11.674Z,997.68
2016-04-15T03:09:11.645Z,997.65
2016-04-15T03:10:11.632Z,997.65
2016-04-15T03:11:11.603Z,997.57
2016-04-15T03:12:11.574Z,997.64
2016-04-15T03:13:11.546Z,997.62
2016-04-15T03:14:11.533Z,997.57
2016-04-15T03:15:11.504Z,997.6
2016-04-15T03:16:11.476Z,997.55
2016-04-15T03:17:11.462Z,997.59
2016-04-15T03:18:11.450Z,997.59
2016-04-15T03:19:11.422Z,997.6
2016-04-15T03:20:11.393Z,997.55
2016-04-15T03:21:11.381Z,997.52
2016-04-15T03:22:11.336Z,997.5
2016-04-15T03:23:11.323Z,997.48
2016-04-15T03:24:11.295Z,997.44
2016-04-15T03:25:11.266Z,997.4
2016-04-15T03:26:11.237Z,997.46
2016-04-15T03:27:11.224Z,997.46
2016-04-15T03:28:11.196Z,997.39
2016-04-15T03:29:11.183Z,997.37
2016-04-15T03:30:11.155Z,997.35
2016-04-15T03:31:11.126Z,997.36
2016-04-15T03:32:11.097Z,997.33
2016-04-15T03:33:11.069Z,997.31
2016-04-15T03:34:11.056Z,997.28
2016-04-15T03:35:11.027Z,997.31
2016-04-15T03:36:11.014Z,997.27
2016-04-15T03:37:10.985Z,997.23
2016-04-15T03:38:10.957Z,997.18
2016-04-15T03:39:10.929Z,997.15
2016-04-15T03:40:10.916Z,997.19
2016-04-15T03:41:10.887Z,997.16
2016-04-15T03:42:10.859Z,997.15
2016-04-15T03:43:10.830Z,997.17
2016-04-15T03:44:10.817Z,997.11
2016-04-15T03:45:10.820Z,997.07
2016-04-15T03:46:10.776Z,997.09
2016-04-15T03:47:10.748Z,997.04
2016-04-15T03:48:10.718Z,996.99
2016-04-15T03:49:10.690Z,996.97
2016-04-15T03:50:10.661Z,996.96
2016-04-15T03:51:10.648Z,996.91
2016-04-15T03:52:10.620Z,996.92
2016-04-15T03:53:10.591Z,996.89
2016-04-15T03:54:10.578Z,996.88
2016-04-15T03:55:10.550Z,996.86
2016-04-15T03:56:10.521Z,996.84
2016-04-15T03:57:10.508Z,996.82
2016-04-15T03:58:10.479Z,996.82
2016-04-15T03:59:10.450Z,996.77
2016-04-15T04:00:10.422Z,996.77
2016-04-15T04:01:10.410Z,996.75
2016-04-15T04:02:10.381Z,996.74
2016-04-15T04:03:10.352Z,996.74
2016-04-15T04:04:10.355Z,996.71
2016-04-15T04:05:10.311Z,996.68
2016-04-15T04:06:10.298Z,996.73
2016-04-15T04:07:10.269Z,996.65
2016-04-15T04:08:10.241Z,996.65
2016-04-15T04:09:10.212Z,996.64
2016-04-15T04:10:10.184Z,996.63
2016-04-15T04:11:10.171Z,996.63
2016-04-15T04:12:10.143Z,996.6
2016-04-15T04:13:10.129Z,996.61
2016-04-15T04:14:10.101Z,996.61
2016-04-15T04:15:10.073Z,996.57
2016-04-15T04:16:10.043Z,996.57
2016-04-15T04:17:10.031Z,996.53
2016-04-15T04:18:10.002Z,996.47
2016-04-15T04:19:09.973Z,996.5
2016-04-15T04:20:09.961Z,996.44
2016-04-15T04:21:09.932Z,996.43
2016-04-15T04:22:09.903Z,996.38
2016-04-15T04:23:09.875Z,996.39
2016-04-15T04:24:09.861Z,996.37
2016-04-15T04:25:09.833Z,996.34
2016-04-15T04:26:09.805Z,996.29
2016-04-15T04:27:09.776Z,996.29
2016-04-15T04:28:09.764Z,996.31
2016-04-15T04:29:09.736Z,996.25
2016-04-15T04:30:09.722Z,996.22
2016-04-15T04:31:09.694Z,996.19
2016-04-15T04:32:09.665Z,996.16
2016-04-15T04:33:09.652Z,996.1
2016-04-15T04:34:09.624Z,996.13
2016-04-15T04:35:09.594Z,996.12
2016-04-15T04:36:09.582Z,996.14
2016-04-15T04:37:09.553Z,996.14
2016-04-15T04:38:09.524Z,996.12
2016-04-15T04:39:09.496Z,996.09
2016-04-15T04:40:09.482Z,996.08
2016-04-15T04:41:09.454Z,996.03
2016-04-15T04:42:09.426Z,996
2016-04-15T04:43:09.413Z,995.98
2016-04-15T04:44:09.385Z,995.99
2016-04-15T04:45:09.356Z,995.98
2016-04-15T04:46:09.327Z,995.94
2016-04-15T04:47:09.315Z,995.96
2016-04-15T04:48:09.286Z,995.95
2016-04-15T04:49:09.273Z,995.92
2016-04-15T04:50:09.244Z,995.87
2016-04-15T04:51:09.231Z,995.87
2016-04-15T04:52:09.188Z,995.85
2016-04-15T04:53:09.174Z,995.84
2016-04-15T04:54:09.143Z,995.86
2016-04-15T04:55:09.126Z,995.84
2016-04-15T04:56:09.092Z,995.87
2016-04-15T04:57:09.078Z,995.87
2016-04-15T04:58:09.066Z,995.9
2016-04-15T04:59:09.022Z,995.87
2016-04-15T05:00:09.009Z,995.89
2016-04-15T05:01:08.980Z,995.89
2016-04-15T05:02:08.967Z,995.9
2016-04-15T05:03:08.939Z,995.87
2016-04-15T05:04:08.910Z,995.85
2016-04-15T05:05:08.881Z,995.85
2016-04-15T05:06:08.868Z,995.82
2016-04-15T05:07:08.840Z,995.85
2016-04-15T05:08:08.827Z,995.85
2016-04-15T05:09:08.798Z,995.87
2016-04-15T05:10:08.770Z,995.86
2016-04-15T05:11:08.757Z,995.87
2016-04-15T05:12:08.729Z,995.87
2016-04-15T05:13:08.700Z,995.83
2016-04-15T05:14:08.671Z,995.78
2016-04-15T05:15:08.658Z,995.75
2016-04-15T05:16:08.630Z,995.7
2016-04-15T05:17:08.601Z,995.7
2016-04-15T05:18:08.588Z,995.67
2016-04-15T05:19:08.559Z,995.66
2016-04-15T05:20:08.531Z,995.68
2016-04-15T05:21:08.518Z,995.67
2016-04-15T05:22:08.489Z,995.66
2016-04-15T05:23:08.461Z,995.63
2016-04-15T05:24:08.432Z,995.66
2016-04-15T05:25:08.419Z,995.66
2016-04-15T05:26:08.391Z,995.62
2016-04-15T05:27:08.378Z,995.63
2016-04-15T05:28:08.350Z,995.58
2016-04-15T05:29:08.321Z,995.59
2016-04-15T05:30:08.308Z,995.57
2016-04-15T05:31:08.280Z,995.6
2016-04-15T05:32:08.250Z,995.58
2016-04-15T05:33:08.222Z,995.58
2016-04-15T05:34:08.209Z,995.6
2016-04-15T05:35:08.180Z,995.59
2016-04-15T05:36:08.153Z,995.61
2016-04-15T05:37:08.139Z,995.62
2016-04-15T05:38:08.111Z,995.6
2016-04-15T05:39:08.083Z,995.63
2016-04-15T05:40:08.069Z,995.61
2016-04-15T05:41:08.041Z,995.6
2016-04-15T05:42:08.012Z,995.58
2016-04-15T05:43:07.999Z,995.57
2016-04-15T05:44:07.971Z,995.53
2016-04-15T05:45:07.942Z,995.54
2016-04-15T05:46:07.929Z,995.55
2016-04-15T05:47:07.901Z,995.56
2016-04-15T05:48:07.871Z,995.51
2016-04-15T05:49:07.859Z,995.49
2016-04-15T05:50:07.831Z,995.46
2016-04-15T05:51:07.801Z,995.45
2016-04-15T05:52:07.790Z,995.45
2016-04-15T05:53:07.760Z,995.45
2016-04-15T05:54:07.732Z,995.46
2016-04-15T05:55:08.329Z,995.44
2016-04-15T05:56:07.690Z,995.43
2016-04-15T05:57:07.662Z,995.41
2016-04-15T05:58:07.648Z,995.38
2016-04-15T05:59:07.620Z,995.39
2016-04-15T06:00:07.592Z,995.38
2016-04-15T06:01:07.578Z,995.41
2016-04-15T06:02:07.550Z,995.36
2016-04-15T06:03:07.521Z,995.37
2016-04-15T06:04:07.508Z,995.34
2016-04-15T06:05:07.480Z,995.33
2016-04-15T06:06:07.451Z,995.29
2016-04-15T06:07:07.438Z,995.31
2016-04-15T06:08:07.410Z,995.28
2016-04-15T06:09:07.382Z,995.28
2016-04-15T06:10:07.353Z,995.28
2016-04-15T06:11:07.341Z,995.24
2016-04-15T06:12:07.311Z,995.28
2016-04-15T06:13:07.283Z,995.27
2016-04-15T06:14:07.270Z,995.23
2016-04-15T06:15:07.241Z,995.21
2016-04-15T06:16:07.213Z,995.21
2016-04-15T06:17:07.199Z,995.2
2016-04-15T06:18:07.171Z,995.18
2016-04-15T06:19:07.143Z,995.17
2016-04-15T06:20:07.130Z,995.17
2016-04-15T06:21:07.107Z,995.12
2016-04-15T06:22:07.392Z,995.1
2016-04-15T06:23:07.051Z,995.14
2016-04-15T06:24:07.023Z,995.05
2016-04-15T06:25:07.009Z,995.07
2016-04-15T06:26:06.981Z,995
2016-04-15T06:27:06.968Z,995
2016-04-15T06:28:06.944Z,995.02
2016-04-15T06:29:06.915Z,995.02
2016-04-15T06:30:06.887Z,994.98
2016-04-15T06:31:06.874Z,994.99
2016-04-15T06:32:06.846Z,994.99
2016-04-15T06:33:06.818Z,995.02
2016-04-15T06:34:06.805Z,994.98
2016-04-15T06:35:06.776Z,994.95
2016-04-15T06:36:06.747Z,994.95
2016-04-15T06:37:06.719Z,994.94
2016-04-15T06:38:06.706Z,994.98
2016-04-15T06:39:06.677Z,995.01
2016-04-15T06:40:06.648Z,995.02
2016-04-15T06:41:06.635Z,995.05
2016-04-15T06:42:06.607Z,994.99
2016-04-15T06:43:06.594Z,995.02
2016-04-15T06:44:06.565Z,995.01
2016-04-15T06:45:06.536Z,995.01
2016-04-15T06:46:06.523Z,995.01
2016-04-15T06:47:06.495Z,995.01
2016-04-15T06:48:06.466Z,994.97
2016-04-15T06:49:06.439Z,994.97
2016-04-15T06:50:06.425Z,994.99
2016-04-15T06:51:06.397Z,995.01
2016-04-15T06:52:06.384Z,995.03
2016-04-15T06:53:06.355Z,995.07
2016-04-15T06:54:06.327Z,995.04
2016-04-15T06:55:06.297Z,995
2016-04-15T06:56:06.285Z,994.94
2016-04-15T06:57:06.257Z,994.93
2016-04-15T06:58:06.228Z,994.89
2016-04-15T06:59:06.216Z,994.91
2016-04-15T07:00:06.187Z,994.88
2016-04-15T07:01:06.174Z,994.9
2016-04-15T07:02:06.146Z,994.93
2016-04-15T07:03:06.116Z,994.89
2016-04-15T07:04:06.088Z,994.91
2016-04-15T07:05:06.075Z,994.88
2016-04-15T07:06:06.046Z,994.89
2016-04-15T07:07:06.018Z,994.89
2016-04-15T07:08:06.021Z,994.91
2016-04-15T07:09:05.976Z,994.91
2016-04-15T07:10:05.948Z,994.91
2016-04-15T07:11:05.934Z,994.86
2016-04-15T07:12:05.906Z,994.83
2016-04-15T07:13:05.878Z,994.79
2016-04-15T07:14:05.849Z,994.74
2016-04-15T07:15:05.837Z,994.78
2016-04-15T07:16:05.808Z,994.76
2016-04-15T07:17:05.795Z,994.77
2016-04-15T07:18:05.767Z,994.76
2016-04-15T07:19:05.738Z,994.73
2016-04-15T07:20:05.709Z,994.71
2016-04-15T07:21:05.685Z,994.7
2016-04-15T07:22:05.672Z,994.72
2016-04-15T07:23:05.644Z,994.69
2016-04-15T07:24:05.630Z,994.63
2016-04-15T07:25:05.602Z,994.68
2016-04-15T07:26:05.573Z,994.68
2016-04-15T07:27:05.560Z,994.68
2016-04-15T07:28:05.538Z,994.66
2016-04-15T07:29:05.509Z,994.69
2016-04-15T07:30:05.480Z,994.64
2016-04-15T07:31:05.546Z,994.66
2016-04-15T07:32:05.439Z,994.66
2016-04-15T07:33:05.410Z,994.67
2016-04-15T07:34:05.397Z,994.67
2016-04-15T07:35:05.368Z,994.64
2016-04-15T07:36:05.340Z,994.67
2016-04-15T07:37:05.327Z,994.67
2016-04-15T07:38:05.298Z,994.66
2016-04-15T07:39:05.286Z,994.65
2016-04-15T07:40:05.256Z,994.62
2016-04-15T07:41:05.229Z,994.69
2016-04-15T07:42:05.200Z,994.64
2016-04-15T07:43:05.187Z,994.63
2016-04-15T07:44:05.159Z,994.65
2016-04-15T07:45:05.145Z,994.62
2016-04-15T07:46:05.180Z,994.64
2016-04-15T07:47:05.088Z,994.65
2016-04-15T07:48:05.075Z,994.63
2016-04-15T07:49:05.063Z,994.6
2016-04-15T07:50:05.033Z,994.58
2016-04-15T07:51:05.005Z,994.56
2016-04-15T07:52:04.976Z,994.57
2016-04-15T07:53:04.963Z,994.56
2016-04-15T07:54:04.935Z,994.57
2016-04-15T07:55:04.906Z,994.57
2016-04-15T07:56:04.894Z,994.59
2016-04-15T07:57:04.865Z,994.6
2016-04-15T07:58:04.837Z,994.56
2016-04-15T07:59:04.823Z,994.57
2016-04-15T08:00:04.795Z,994.56
2016-04-15T08:01:04.798Z,994.59
2016-04-15T08:02:04.753Z,994.56
2016-04-15T08:03:04.725Z,994.56
2016-04-15T08:04:04.712Z,994.56
2016-04-15T08:05:04.684Z,994.61
2016-04-15T08:06:04.671Z,994.54
2016-04-15T08:07:04.643Z,994.52
2016-04-15T08:08:04.629Z,994.54
2016-04-15T08:09:04.601Z,994.53
2016-04-15T08:10:04.587Z,994.55
2016-04-15T08:11:04.559Z,994.57
2016-04-15T08:12:04.531Z,994.57
2016-04-15T08:13:04.517Z,994.59
2016-04-15T08:14:04.489Z,994.63
2016-04-15T08:15:04.475Z,994.65
2016-04-15T08:16:04.589Z,994.62
2016-04-15T08:17:04.435Z,994.63
2016-04-15T08:18:04.406Z,994.68
2016-04-15T08:19:04.394Z,994.65
2016-04-15T08:20:04.364Z,994.65
2016-04-15T08:21:04.342Z,994.64
2016-04-15T08:22:04.329Z,994.63
2016-04-15T08:23:04.300Z,994.63
2016-04-15T08:24:04.272Z,994.64
2016-04-15T08:25:04.258Z,994.64
2016-04-15T08:26:04.246Z,994.58
2016-04-15T08:27:04.233Z,994.65
2016-04-15T08:28:04.186Z,994.66
2016-04-15T08:29:04.172Z,994.63
2016-04-15T08:30:04.161Z,994.64
2016-04-15T08:31:04.132Z,994.63
2016-04-15T08:32:04.124Z,994.62
2016-04-15T08:33:04.138Z,994.62
2016-04-15T08:34:04.167Z,994.57
2016-04-15T08:35:04.181Z,994.57
2016-04-15T08:36:04.211Z,994.55
2016-04-15T08:37:04.222Z,994.54
2016-04-15T08:38:04.224Z,994.57
2016-04-15T08:39:04.211Z,994.44
2016-04-15T08:40:04.213Z,994.53
2016-04-15T08:41:04.200Z,994.48
2016-04-15T08:42:04.202Z,994.49
2016-04-15T08:43:04.178Z,994.53
2016-04-15T08:44:04.171Z,994.52
2016-04-15T08:45:04.164Z,994.51
2016-04-15T08:46:04.141Z,994.5
2016-04-15T08:47:04.132Z,994.55
2016-04-15T08:48:04.106Z,994.49
2016-04-15T08:49:04.094Z,994.48
2016-04-15T08:50:04.068Z,994.45
2016-04-15T08:51:04.041Z,994.49
2016-04-15T08:52:04.030Z,994.48
2016-04-15T08:53:04.019Z,994.5
2016-04-15T08:54:03.990Z,994.49
2016-04-15T08:55:03.979Z,994.46
2016-04-15T08:56:03.950Z,994.5
2016-04-15T08:57:03.938Z,994.46
2016-04-15T08:58:03.910Z,994.44
2016-04-15T08:59:03.897Z,994.5
2016-04-15T09:00:03.870Z,994.44
2016-04-15T09:01:03.856Z,994.43
2016-04-15T09:02:03.828Z,994.43
2016-04-15T09:03:03.815Z,994.4
2016-04-15T09:04:03.787Z,994.42
2016-04-15T09:05:03.774Z,994.44
2016-04-15T09:06:03.746Z,994.45
2016-04-15T09:07:03.732Z,994.41
2016-04-15T09:08:03.704Z,994.42
2016-04-15T09:09:03.691Z,994.37
2016-04-15T09:10:03.678Z,994.34
2016-04-15T09:11:03.650Z,994.39
2016-04-15T09:12:03.652Z,994.36
2016-04-15T09:13:03.623Z,994.28
2016-04-15T09:14:03.594Z,994.33
2016-04-15T09:15:03.566Z,994.34
2016-04-15T09:16:03.553Z,994.33
2016-04-15T09:17:03.541Z,994.31
2016-04-15T09:18:03.512Z,994.23
2016-04-15T09:19:03.499Z,994.27
2016-04-15T09:20:03.471Z,994.28
2016-04-15T09:21:03.473Z,994.26
2016-04-15T09:22:03.444Z,994.26
2016-04-15T09:23:03.416Z,994.23
2016-04-15T09:24:03.403Z,994.2
2016-04-15T09:25:03.374Z,994.16
2016-04-15T09:26:03.363Z,994.18
2016-04-15T09:27:03.349Z,994.18
2016-04-15T09:28:03.321Z,994.15
2016-04-15T09:29:03.307Z,994.22
2016-04-15T09:30:03.279Z,994.26
2016-04-15T09:31:03.266Z,994.23
2016-04-15T09:32:03.253Z,994.3
2016-04-15T09:33:03.224Z,994.33
2016-04-15T09:34:03.211Z,994.27
2016-04-15T09:35:03.182Z,994.26
2016-04-15T09:36:03.170Z,994.22
2016-04-15T09:37:03.142Z,994.24
2016-04-15T09:38:03.129Z,994.29
2016-04-15T09:39:03.115Z,994.25
2016-04-15T09:40:03.087Z,994.19
2016-04-15T09:41:03.073Z,994.34
2016-04-15T09:42:03.045Z,994.26
2016-04-15T09:43:03.033Z,994.28
2016-04-15T09:44:03.003Z,994.19
2016-04-15T09:45:02.991Z,994.31
2016-04-15T09:46:02.977Z,994.3
2016-04-15T09:47:02.949Z,994.29
2016-04-15T09:48:02.921Z,994.3
2016-04-15T09:49:02.908Z,994.35
2016-04-15T09:50:02.895Z,994.31
2016-04-15T09:51:02.866Z,994.28
2016-04-15T09:52:02.838Z,994.39
2016-04-15T09:53:02.824Z,994.46
2016-04-15T09:54:02.812Z,994.47
2016-04-15T09:55:02.799Z,994.43
2016-04-15T09:56:02.771Z,994.48
2016-04-15T09:57:02.742Z,994.52
2016-04-15T09:58:02.730Z,994.49
2016-04-15T09:59:02.701Z,994.51
2016-04-15T10:00:02.688Z,994.48
2016-04-15T10:01:02.659Z,994.56
2016-04-15T10:02:02.646Z,994.56
2016-04-15T10:03:02.617Z,994.59
2016-04-15T10:04:02.604Z,994.51
2016-04-15T10:05:02.576Z,994.59
2016-04-15T10:06:02.562Z,994.52
2016-04-15T10:07:02.534Z,994.61
2016-04-15T10:08:02.521Z,994.57
2016-04-15T10:09:02.509Z,994.66
2016-04-15T10:10:02.481Z,994.57
2016-04-15T10:11:02.451Z,994.59
2016-04-15T10:12:02.439Z,994.54
2016-04-15T10:13:02.409Z,994.59
2016-04-15T10:14:02.397Z,994.6
2016-04-15T10:15:02.369Z,994.59
2016-04-15T10:16:02.355Z,994.6
2016-04-15T10:17:02.327Z,994.56
2016-04-15T10:18:02.313Z,994.59
2016-04-15T10:19:02.285Z,994.63
2016-04-15T10:20:02.272Z,994.59
2016-04-15T10:21:02.244Z,994.64
2016-04-15T10:22:02.231Z,994.59
2016-04-15T10:23:02.202Z,994.61
2016-04-15T10:24:02.189Z,994.57
2016-04-15T10:25:02.160Z,994.61
2016-04-15T10:26:02.148Z,994.64
2016-04-15T10:27:02.119Z,994.52
2016-04-15T10:28:02.107Z,994.58
2016-04-15T10:29:02.078Z,994.58
2016-04-15T10:30:02.066Z,994.57
2016-04-15T10:31:02.037Z,994.52
2016-04-15T10:32:02.024Z,994.58
2016-04-15T10:33:01.995Z,994.57
2016-04-15T10:34:01.982Z,994.51
2016-04-15T10:35:01.953Z,994.56
2016-04-15T10:36:01.940Z,994.53
2016-04-15T10:37:01.928Z,994.52
2016-04-15T10:38:01.898Z,994.58
2016-04-15T10:39:01.887Z,994.47
2016-04-15T10:40:01.857Z,994.49
2016-04-15T10:41:01.845Z,994.53
2016-04-15T10:42:01.816Z,994.54
2016-04-15T10:43:01.803Z,994.57
2016-04-15T10:44:01.790Z,994.6
2016-04-15T10:45:01.761Z,994.58
2016-04-15T10:46:01.748Z,994.59
2016-04-15T10:47:01.782Z,994.63
2016-04-15T10:48:01.707Z,994.64
2016-04-15T10:49:01.678Z,994.65
2016-04-15T10:50:01.649Z,994.67
2016-04-15T10:51:01.637Z,994.65
2016-04-15T10:52:01.624Z,994.72
2016-04-15T10:53:01.596Z,994.73
2016-04-15T10:54:01.582Z,994.79
2016-04-15T10:55:01.554Z,994.7
2016-04-15T10:56:01.541Z,994.71
2016-04-15T10:57:01.528Z,994.7
2016-04-15T10:58:01.485Z,994.68
2016-04-15T10:59:01.472Z,994.67
2016-04-15T11:00:01.443Z,994.73
2016-04-15T11:01:01.430Z,994.7
2016-04-15T11:02:01.496Z,994.7
2016-04-15T11:03:01.388Z,994.69
2016-04-15T11:04:01.376Z,994.63
2016-04-15T11:05:01.346Z,994.67
2016-04-15T11:06:01.318Z,994.64
2016-04-15T11:07:01.304Z,994.68
2016-04-15T11:08:01.276Z,994.72
2016-04-15T11:09:01.248Z,994.66
2016-04-15T11:10:01.235Z,994.66
2016-04-15T11:11:01.207Z,994.63
2016-04-15T11:12:01.193Z,994.63
2016-04-15T11:13:01.165Z,994.7
2016-04-15T11:14:01.153Z,994.67
2016-04-15T11:15:01.123Z,994.6
2016-04-15T11:16:01.111Z,994.56
2016-04-15T11:17:01.238Z,994.61
2016-04-15T11:18:01.069Z,994.65
2016-04-15T11:19:01.040Z,994.57
2016-04-15T11:20:01.027Z,994.57
2016-04-15T11:21:00.999Z,994.57
2016-04-15T11:22:00.986Z,994.51
2016-04-15T11:23:00.958Z,994.49
2016-04-15T11:24:00.944Z,994.5
2016-04-15T11:25:00.916Z,994.45
2016-04-15T11:26:00.902Z,994.41
2016-04-15T11:27:00.874Z,994.38
2016-04-15T11:28:00.861Z,994.4
2016-04-15T11:29:00.833Z,994.43
2016-04-15T11:30:00.805Z,994.41
2016-04-15T11:31:00.792Z,994.38
2016-04-15T11:32:00.810Z,994.4
2016-04-15T11:33:00.750Z,994.39
2016-04-15T11:34:00.737Z,994.29
2016-04-15T11:35:00.709Z,994.28
2016-04-15T11:36:00.696Z,994.32
2016-04-15T11:37:00.667Z,994.28
2016-04-15T11:38:00.654Z,994.38
2016-04-15T11:39:00.625Z,994.29
2016-04-15T11:40:00.613Z,994.25
2016-04-15T11:41:00.600Z,994.23
2016-04-15T11:42:00.571Z,994.23
2016-04-15T11:43:00.558Z,994.25
2016-04-15T11:44:00.529Z,994.14
2016-04-15T11:45:00.517Z,994.18
2016-04-15T11:46:00.503Z,994.12
2016-04-15T11:47:00.491Z,994.15
2016-04-15T11:48:00.462Z,994.15
2016-04-15T11:49:00.449Z,994.04
2016-04-15T11:50:00.420Z,994.12
2016-04-15T11:51:00.408Z,994.11
2016-04-15T11:52:00.394Z,994.11
2016-04-15T11:53:00.366Z,994.06
2016-04-15T11:54:00.338Z,994.07
2016-04-15T11:55:00.324Z,994.11
2016-04-15T11:56:00.311Z,994.07
2016-04-15T11:57:00.283Z,994.04
2016-04-15T11:58:00.271Z,994.1
2016-04-15T11:59:00.242Z,994.11
2016-04-15T12:00:00.229Z,994.04
2016-04-15T12:01:00.216Z,994.1
2016-04-15T12:02:00.187Z,994.07
2016-04-15T12:03:00.159Z,994.05
2016-04-15T12:04:00.161Z,994.01
2016-04-15T12:05:00.132Z,994.04
2016-04-15T12:06:00.104Z,994.03
2016-04-15T12:07:00.091Z,994.1
2016-04-15T12:08:00.062Z,993.89
2016-04-15T12:09:00.066Z,993.99
2016-04-15T12:10:00.039Z,994.06
2016-04-15T12:11:00.011Z,994.07
2016-04-15T12:11:59.982Z,994.01
2016-04-15T12:12:59.969Z,994.05
2016-04-15T12:13:59.941Z,994.03
2016-04-15T12:14:59.927Z,994.03
2016-04-15T12:15:59.899Z,994.06
2016-04-15T12:16:59.901Z,994.03
2016-04-15T12:17:59.873Z,994.1
2016-04-15T12:18:59.844Z,994.12
2016-04-15T12:19:59.832Z,993.98
2016-04-15T12:20:59.803Z,993.93
2016-04-15T12:21:59.821Z,994.03
2016-04-15T12:22:59.777Z,994.03
2016-04-15T12:23:59.748Z,994.12
2016-04-15T12:24:59.735Z,994.09
2016-04-15T12:25:59.717Z,994.04
2016-04-15T12:26:59.687Z,994.06
2016-04-15T12:27:59.675Z,994.12
2016-04-15T12:28:59.647Z,994.1
2016-04-15T12:29:59.634Z,994.13
2016-04-15T12:30:59.621Z,994.05